sensor_id;sensor_type;location;lat;lon;timestamp;pressure;altitude;pressure_sealevel;temperature;humidity
66273;BME280;58450;52.150;4.466;2023-06-01T00:01:09;102483.25;;;13.27;100.00
66273;BME280;58450;52.150;4.466;2023-06-01T00:03:38;102476.53;;;13.23;100.00
66273;BME280;58450;52.150;4.466;2023-06-01T00:06:06;102483.63;;;13.24;100.00
66273;BME280;58450;52.150;4.466;2023-06-01T00:08:35;102480.41;;;13.28;100.00
66273;BME280;58450;52.150;4.466;2023-06-01T00:11:02;102480.41;;;13.28;100.00
66273;BME280;58450;52.150;4.466;2023-06-01T00:13:30;102475.16;;;13.27;100.00
66273;BME280;58450;52.150;4.466;2023-06-01T00:15:57;102477.03;;;13.26;100.00
66273;BME280;58450;52.150;4.466;2023-06-01T00:18:26;102483.09;;;13.28;100.00
66273;BME280;58450;52.150;4.466;2023-06-01T00:20:54;102474.81;;;13.22;100.00
66273;BME280;58450;52.150;4.466;2023-06-01T00:23:21;102481.06;;;13.22;100.00
66273;BME280;58450;52.150;4.466;2023-06-01T00:25:49;102478.84;;;13.26;100.00
66273;BME280;58450;52.150;4.466;2023-06-01T00:28:16;102470.75;;;13.26;100.00
66273;BME280;58450;52.150;4.466;2023-06-01T00:30:44;102479.53;;;13.28;100.00
66273;BME280;58450;52.150;4.466;2023-06-01T00:33:12;102473.31;;;13.27;100.00
66273;BME280;58450;52.150;4.466;2023-06-01T00:35:40;102472.28;;;13.28;100.00
66273;BME280;58450;52.150;4.466;2023-06-01T00:38:08;102471.94;;;13.23;100.00
66273;BME280;58450;52.150;4.466;2023-06-01T00:40:36;102473.97;;;13.21;100.00
66273;BME280;58450;52.150;4.466;2023-06-01T00:43:03;102466.50;;;13.15;100.00
66273;BME280;58450;52.150;4.466;2023-06-01T00:45:31;102479.03;;;13.24;100.00
66273;BME280;58450;52.150;4.466;2023-06-01T00:47:59;102472.28;;;13.28;100.00
66273;BME280;58450;52.150;4.466;2023-06-01T00:50:26;102464.00;;;13.30;100.00
66273;BME280;58450;52.150;4.466;2023-06-01T00:52:57;102473.31;;;13.27;100.00
66273;BME280;58450;52.150;4.466;2023-06-01T00:55:27;102468.41;;;13.23;100.00
66273;BME280;58450;52.150;4.466;2023-06-01T00:57:55;102476.84;;;13.20;100.00
66273;BME280;58450;52.150;4.466;2023-06-01T01:00:24;102474.47;;;13.17;100.00
66273;BME280;58450;52.150;4.466;2023-06-01T01:02:53;102481.22;;;13.12;100.00
66273;BME280;58450;52.150;4.466;2023-06-01T01:05:23;102479.31;;;13.05;100.00
66273;BME280;58450;52.150;4.466;2023-06-01T01:07:57;102485.25;;;13.08;100.00
66273;BME280;58450;52.150;4.466;2023-06-01T01:10:33;102473.03;;;12.96;100.00
66273;BME280;58450;52.150;4.466;2023-06-01T01:13:10;102476.75;;;12.95;100.00
66273;BME280;58450;52.150;4.466;2023-06-01T01:15:48;102465.72;;;12.88;100.00
66273;BME280;58450;52.150;4.466;2023-06-01T01:18:24;102473.13;;;12.78;100.00
66273;BME280;58450;52.150;4.466;2023-06-01T01:21:01;102465.31;;;12.66;100.00
66273;BME280;58450;52.150;4.466;2023-06-01T01:24:15;102465.53;;;12.81;100.00
66273;BME280;58450;52.150;4.466;2023-06-01T01:27:04;102467.59;;;12.88;100.00
66273;BME280;58450;52.150;4.466;2023-06-01T01:29:42;102459.00;;;12.92;100.00
66273;BME280;58450;52.150;4.466;2023-06-01T01:32:13;102462.22;;;12.96;100.00
66273;BME280;58450;52.150;4.466;2023-06-01T01:34:43;102460.34;;;12.96;100.00
66273;BME280;58450;52.150;4.466;2023-06-01T01:37:14;102459.84;;;12.93;100.00
66273;BME280;58450;52.150;4.466;2023-06-01T01:39:41;102461.69;;;12.92;100.00
66273;BME280;58450;52.150;4.466;2023-06-01T01:42:09;102457.16;;;12.93;100.00
66273;BME280;58450;52.150;4.466;2023-06-01T01:44:36;102465.59;;;12.90;100.00
66273;BME280;58450;52.150;4.466;2023-06-01T01:47:09;102462.19;;;12.88;100.00
66273;BME280;58450;52.150;4.466;2023-06-01T01:49:43;102460.19;;;12.90;100.00
66273;BME280;58450;52.150;4.466;2023-06-01T01:52:16;102462.34;;;12.86;100.00
66273;BME280;58450;52.150;4.466;2023-06-01T01:54:50;102471.66;;;12.92;100.00
66273;BME280;58450;52.150;4.466;2023-06-01T01:57:19;102471.44;;;12.85;100.00
66273;BME280;58450;52.150;4.466;2023-06-01T01:59:49;102463.84;;;12.80;100.00
66273;BME280;58450;52.150;4.466;2023-06-01T02:02:18;102466.03;;;12.77;100.00
66273;BME280;58450;52.150;4.466;2023-06-01T02:04:46;102461.84;;;12.82;100.00
66273;BME280;58450;52.150;4.466;2023-06-01T02:07:14;102466.75;;;12.87;100.00
66273;BME280;58450;52.150;4.466;2023-06-01T02:09:42;102462.19;;;12.88;100.00
66273;BME280;58450;52.150;4.466;2023-06-01T02:12:10;102450.38;;;12.89;100.00
66273;BME280;58450;52.150;4.466;2023-06-01T02:14:38;102451.75;;;12.93;100.00
66273;BME280;58450;52.150;4.466;2023-06-01T02:17:06;102448.50;;;12.89;100.00
66273;BME280;58450;52.150;4.466;2023-06-01T02:19:35;102452.75;;;12.92;100.00
66273;BME280;58450;52.150;4.466;2023-06-01T02:22:02;102449.38;;;12.90;100.00
66273;BME280;58450;52.150;4.466;2023-06-01T02:24:30;102453.91;;;12.89;100.00
66273;BME280;58450;52.150;4.466;2023-06-01T02:26:58;102446.81;;;12.88;100.00
66273;BME280;58450;52.150;4.466;2023-06-01T02:29:25;102446.31;;;12.84;100.00
66273;BME280;58450;52.150;4.466;2023-06-01T02:31:53;102450.84;;;12.84;100.00
66273;BME280;58450;52.150;4.466;2023-06-01T02:34:20;102453.88;;;12.81;100.00
66273;BME280;58450;52.150;4.466;2023-06-01T02:36:49;102453.03;;;12.80;100.00
66273;BME280;58450;52.150;4.466;2023-06-01T02:39:21;102450.84;;;12.84;100.00
66273;BME280;58450;52.150;4.466;2023-06-01T02:41:49;102445.78;;;12.81;100.00
66273;BME280;58450;52.150;4.466;2023-06-01T02:44:17;102450.53;;;12.79;100.00
66273;BME280;58450;52.150;4.466;2023-06-01T02:46:44;102448.16;;;12.84;100.00
66273;BME280;58450;52.150;4.466;2023-06-01T02:49:12;102442.75;;;12.84;100.00
66273;BME280;58450;52.150;4.466;2023-06-01T02:51:39;102439.34;;;12.82;100.00
66273;BME280;58450;52.150;4.466;2023-06-01T02:54:08;102442.06;;;12.82;100.00
66273;BME280;58450;52.150;4.466;2023-06-01T02:56:36;102449.47;;;12.71;100.00
66273;BME280;58450;52.150;4.466;2023-06-01T02:59:03;102435.97;;;12.71;100.00
66273;BME280;58450;52.150;4.466;2023-06-01T03:01:32;102437.66;;;12.73;100.00
66273;BME280;58450;52.150;4.466;2023-06-01T03:04:01;102440.16;;;12.66;100.00
66273;BME280;58450;52.150;4.466;2023-06-01T03:06:29;102432.59;;;12.69;100.00
66273;BME280;58450;52.150;4.466;2023-06-01T03:08:58;102431.56;;;12.70;100.00
66273;BME280;58450;52.150;4.466;2023-06-01T03:11:27;102431.72;;;12.69;100.00
66273;BME280;58450;52.150;4.466;2023-06-01T03:13:55;102432.91;;;12.66;100.00
66273;BME280;58450;52.150;4.466;2023-06-01T03:16:23;102434.06;;;12.64;100.00
66273;BME280;58450;52.150;4.466;2023-06-01T03:18:52;102428.16;;;12.60;100.00
66273;BME280;58450;52.150;4.466;2023-06-01T03:21:21;102434.38;;;12.61;100.00
66273;BME280;58450;52.150;4.466;2023-06-01T03:23:48;102432.69;;;12.60;100.00
66273;BME280;58450;52.150;4.466;2023-06-01T03:26:16;102442.13;;;12.55;100.00
66273;BME280;58450;52.150;4.466;2023-06-01T03:28:48;102442.81;;;12.57;100.00
66273;BME280;58450;52.150;4.466;2023-06-01T03:31:16;102444.00;;;12.55;100.00
66273;BME280;58450;52.150;4.466;2023-06-01T03:33:44;102444.34;;;12.60;100.00
66273;BME280;58450;52.150;4.466;2023-06-01T03:36:12;102444.34;;;12.60;100.00
66273;BME280;58450;52.150;4.466;2023-06-01T03:38:39;102443.84;;;12.65;100.00
66273;BME280;58450;52.150;4.466;2023-06-01T03:41:08;102439.47;;;12.64;100.00
66273;BME280;58450;52.150;4.466;2023-06-01T03:43:36;102435.09;;;12.71;100.00
66273;BME280;58450;52.150;4.466;2023-06-01T03:46:05;102431.91;;;12.67;100.00
66273;BME280;58450;52.150;4.466;2023-06-01T03:48:32;102448.78;;;12.69;100.00
66273;BME280;58450;52.150;4.466;2023-06-01T03:51:00;102436.16;;;12.78;100.00
66273;BME280;58450;52.150;4.466;2023-06-01T03:53:28;102441.72;;;12.77;100.00
66273;BME280;58450;52.150;4.466;2023-06-01T03:55:57;102442.88;;;12.74;100.00
66273;BME280;58450;52.150;4.466;2023-06-01T03:58:24;102447.94;;;12.69;100.00
66273;BME280;58450;52.150;4.466;2023-06-01T04:00:53;102441.72;;;12.77;100.00
66273;BME280;58450;52.150;4.466;2023-06-01T04:03:22;102444.75;;;12.82;100.00
66273;BME280;58450;52.150;4.466;2023-06-01T04:05:52;102441.22;;;12.81;100.00
66273;BME280;58450;52.150;4.466;2023-06-01T04:08:24;102446.81;;;12.80;100.00
66273;BME280;58450;52.150;4.466;2023-06-01T04:10:52;102443.44;;;12.86;100.00
66273;BME280;58450;52.150;4.466;2023-06-01T04:13:20;102443.63;;;12.93;100.00
66273;BME280;58450;52.150;4.466;2023-06-01T04:15:47;102439.94;;;12.94;100.00
66273;BME280;58450;52.150;4.466;2023-06-01T04:18:15;102435.56;;;13.01;100.00
66273;BME280;58450;52.150;4.466;2023-06-01T04:20:44;102443.16;;;13.06;100.00
66273;BME280;58450;52.150;4.466;2023-06-01T04:23:11;102445.88;;;13.06;100.00
66273;BME280;58450;52.150;4.466;2023-06-01T04:25:39;102442.84;;;13.09;100.00
66273;BME280;58450;52.150;4.466;2023-06-01T04:28:10;102437.25;;;13.02;100.00
66273;BME280;58450;52.150;4.466;2023-06-01T04:30:37;102442.47;;;13.04;100.00
66273;BME280;58450;52.150;4.466;2023-06-01T04:33:06;102440.63;;;13.04;100.00
66273;BME280;58450;52.150;4.466;2023-06-01T04:35:34;102444.72;;;13.08;100.00
66273;BME280;58450;52.150;4.466;2023-06-01T04:38:04;102437.47;;;13.17;100.00
66273;BME280;58450;52.150;4.466;2023-06-01T04:40:32;102443.72;;;13.18;100.00
66273;BME280;58450;52.150;4.466;2023-06-01T04:42:59;102451.16;;;13.15;100.00
66273;BME280;58450;52.150;4.466;2023-06-01T04:45:29;102434.75;;;13.17;100.00
66273;BME280;58450;52.150;4.466;2023-06-01T04:47:59;102445.25;;;13.20;100.00
66273;BME280;58450;52.150;4.466;2023-06-01T04:50:27;102444.56;;;13.26;100.00
66273;BME280;58450;52.150;4.466;2023-06-01T04:52:55;102434.25;;;13.30;100.00
66273;BME280;58450;52.150;4.466;2023-06-01T04:55:24;102449.50;;;13.39;100.00
66273;BME280;58450;52.150;4.466;2023-06-01T04:57:51;102452.72;;;13.35;100.00
66273;BME280;58450;52.150;4.466;2023-06-01T05:00:20;102454.44;;;13.44;100.00
66273;BME280;58450;52.150;4.466;2023-06-01T05:02:49;102455.28;;;13.53;100.00
66273;BME280;58450;52.150;4.466;2023-06-01T05:05:16;102458.53;;;13.56;100.00
66273;BME280;58450;52.150;4.466;2023-06-01T05:07:44;102449.91;;;13.61;100.00
66273;BME280;58450;52.150;4.466;2023-06-01T05:10:12;102453.13;;;13.65;100.00
66273;BME280;58450;52.150;4.466;2023-06-01T05:12:41;102457.19;;;13.69;100.00
66273;BME280;58450;52.150;4.466;2023-06-01T05:15:09;102457.84;;;13.71;100.00
66273;BME280;58450;52.150;4.466;2023-06-01T05:17:37;102460.38;;;13.72;100.00
66273;BME280;58450;52.150;4.466;2023-06-01T05:20:06;102462.41;;;13.70;100.00
66273;BME280;58450;52.150;4.466;2023-06-01T05:22:37;102466.47;;;13.58;100.00
66273;BME280;58450;52.150;4.466;2023-06-01T05:25:05;102458.53;;;13.56;100.00
66273;BME280;58450;52.150;4.466;2023-06-01T05:27:33;102450.75;;;13.53;100.00
66273;BME280;58450;52.150;4.466;2023-06-01T05:30:03;102451.09;;;13.58;100.00
66273;BME280;58450;52.150;4.466;2023-06-01T05:32:31;102463.09;;;13.64;100.00
66273;BME280;58450;52.150;4.466;2023-06-01T05:34:59;102452.25;;;13.64;100.00
66273;BME280;58450;52.150;4.466;2023-06-01T05:37:26;102454.47;;;13.69;100.00
66273;BME280;58450;52.150;4.466;2023-06-01T05:39:54;102453.09;;;13.81;100.00
66273;BME280;58450;52.150;4.466;2023-06-01T05:42:21;102456.34;;;13.93;100.00
66273;BME280;58450;52.150;4.466;2023-06-01T05:44:49;102452.28;;;14.06;100.00
66273;BME280;58450;52.150;4.466;2023-06-01T05:47:18;102455.47;;;14.17;100.00
66273;BME280;58450;52.150;4.466;2023-06-01T05:49:45;102450.38;;;14.23;100.00
66273;BME280;58450;52.150;4.466;2023-06-01T05:52:13;102458.84;;;14.28;100.00
66273;BME280;58450;52.150;4.466;2023-06-01T05:54:40;102457.47;;;14.40;100.00
66273;BME280;58450;52.150;4.466;2023-06-01T05:57:08;102464.56;;;14.41;100.00
66273;BME280;58450;52.150;4.466;2023-06-01T05:59:36;102458.81;;;14.44;100.00
66273;BME280;58450;52.150;4.466;2023-06-01T06:02:04;102458.66;;;14.21;100.00
66273;BME280;58450;52.150;4.466;2023-06-01T06:04:33;102461.66;;;14.43;100.00
66273;BME280;58450;52.150;4.466;2023-06-01T06:07:00;102456.56;;;14.56;100.00
66273;BME280;58450;52.150;4.466;2023-06-01T06:09:28;102458.72;;;14.61;100.00
66273;BME280;58450;52.150;4.466;2023-06-01T06:11:55;102466.72;;;14.54;100.00
66273;BME280;58450;52.150;4.466;2023-06-01T06:14:23;102469.22;;;14.64;100.00
66273;BME280;58450;52.150;4.466;2023-06-01T06:16:51;102472.97;;;14.71;100.00
66273;BME280;58450;52.150;4.466;2023-06-01T06:19:19;102466.72;;;14.71;100.00
66273;BME280;58450;52.150;4.466;2023-06-01T06:21:48;102463.13;;;14.62;100.00
66273;BME280;58450;52.150;4.466;2023-06-01T06:24:15;102462.78;;;14.65;100.00
66273;BME280;58450;52.150;4.466;2023-06-01T06:26:43;102451.59;;;14.76;100.00
66273;BME280;58450;52.150;4.466;2023-06-01T06:29:11;102457.03;;;14.60;100.00
66273;BME280;58450;52.150;4.466;2023-06-01T06:31:38;102449.78;;;14.60;100.00
66273;BME280;58450;52.150;4.466;2023-06-01T06:34:06;102452.59;;;14.84;100.00
66273;BME280;58450;52.150;4.466;2023-06-01T06:36:33;102454.00;;;15.03;100.00
66273;BME280;58450;52.150;4.466;2023-06-01T06:39:02;102454.25;;;15.25;100.00
66273;BME280;58450;52.150;4.466;2023-06-01T06:41:30;102458.56;;;15.11;100.00
66273;BME280;58450;52.150;4.466;2023-06-01T06:43:57;102456.69;;;15.11;100.00
66273;BME280;58450;52.150;4.466;2023-06-01T06:46:25;102453.88;;;15.28;100.00
66273;BME280;58450;52.150;4.466;2023-06-01T06:48:52;102457.94;;;15.32;100.00
66273;BME280;58450;52.150;4.466;2023-06-01T06:51:20;102461.00;;;15.29;100.00
66273;BME280;58450;52.150;4.466;2023-06-01T06:53:48;102458.28;;;15.52;100.00
66273;BME280;58450;52.150;4.466;2023-06-01T06:56:17;102459.03;;;15.69;100.00
66273;BME280;58450;52.150;4.466;2023-06-01T06:58:44;102468.81;;;15.78;100.00
66273;BME280;58450;52.150;4.466;2023-06-01T07:01:12;102472.00;;;15.82;100.00
66273;BME280;58450;52.150;4.466;2023-06-01T07:03:40;102470.28;;;15.81;100.00
66273;BME280;58450;52.150;4.466;2023-06-01T07:06:07;102475.25;;;15.77;100.00
66273;BME280;58450;52.150;4.466;2023-06-01T07:08:35;102461.31;;;15.57;100.00
66273;BME280;58450;52.150;4.466;2023-06-01T07:11:04;102471.13;;;15.58;100.00
66273;BME280;58450;52.150;4.466;2023-06-01T07:13:33;102476.34;;;15.91;100.00
66273;BME280;58450;52.150;4.466;2023-06-01T07:16:02;102471.63;;;16.08;100.00
66273;BME280;58450;52.150;4.466;2023-06-01T07:18:31;102470.88;;;16.15;100.00
66273;BME280;58450;52.150;4.466;2023-06-01T07:20:58;102468.28;;;16.36;100.00
66273;BME280;58450;52.150;4.466;2023-06-01T07:23:26;102474.59;;;16.52;100.00
66273;BME280;58450;52.150;4.466;2023-06-01T07:25:53;102476.16;;;16.76;100.00
66273;BME280;58450;52.150;4.466;2023-06-01T07:28:21;102475.13;;;16.77;100.00
66273;BME280;58450;52.150;4.466;2023-06-01T07:30:54;102480.38;;;16.79;100.00
66273;BME280;58450;52.150;4.466;2023-06-01T07:33:21;102482.34;;;16.85;100.00
66273;BME280;58450;52.150;4.466;2023-06-01T07:35:51;102473.34;;;16.99;100.00
66273;BME280;58450;52.150;4.466;2023-06-01T07:38:20;102486.19;;;16.91;100.00
66273;BME280;58450;52.150;4.466;2023-06-01T07:40:49;102482.44;;;16.92;100.00
66273;BME280;58450;52.150;4.466;2023-06-01T07:43:17;102491.25;;;16.94;100.00
66273;BME280;58450;52.150;4.466;2023-06-01T07:45:44;102481.50;;;17.15;100.00
66273;BME280;58450;52.150;4.466;2023-06-01T07:48:13;102486.75;;;17.16;100.00
66273;BME280;58450;52.150;4.466;2023-06-01T07:50:41;102480.88;;;17.56;100.00
66273;BME280;58450;52.150;4.466;2023-06-01T07:53:09;102481.41;;;17.88;100.00
66273;BME280;58450;52.150;4.466;2023-06-01T07:55:36;102476.53;;;18.05;100.00
66273;BME280;58450;52.150;4.466;2023-06-01T07:58:04;102477.53;;;18.26;100.00
66273;BME280;58450;52.150;4.466;2023-06-01T08:00:32;102476.13;;;18.37;100.00
66273;BME280;58450;52.150;4.466;2023-06-01T08:03:00;102476.84;;;18.45;100.00
66273;BME280;58450;52.150;4.466;2023-06-01T08:05:34;102471.56;;;18.79;100.00
66273;BME280;58450;52.150;4.466;2023-06-01T08:08:02;102465.53;;;19.59;100.00
66273;BME280;58450;52.150;4.466;2023-06-01T08:10:30;102464.91;;;19.71;100.00
66273;BME280;58450;52.150;4.466;2023-06-01T08:12:57;102471.00;;;19.53;100.00
66273;BME280;58450;52.150;4.466;2023-06-01T08:15:25;102465.31;;;19.47;100.00
66273;BME280;58450;52.150;4.466;2023-06-01T08:17:54;102469.28;;;19.38;100.00
66273;BME280;58450;52.150;4.466;2023-06-01T08:20:21;102473.59;;;19.12;99.41
66273;BME280;58450;52.150;4.466;2023-06-01T08:22:51;102466.31;;;19.33;96.91
66273;BME280;58450;52.150;4.466;2023-06-01T08:25:19;102462.63;;;20.21;96.33
66273;BME280;58450;52.150;4.466;2023-06-01T08:27:46;102467.84;;;21.09;94.26
66273;BME280;58450;52.150;4.466;2023-06-01T08:30:14;102454.56;;;21.45;93.46
66273;BME280;58450;52.150;4.466;2023-06-01T08:32:41;102469.84;;;21.27;88.77
66273;BME280;58450;52.150;4.466;2023-06-01T08:35:09;102457.47;;;21.50;86.25
66273;BME280;58450;52.150;4.466;2023-06-01T08:37:37;102452.50;;;21.97;85.27
66273;BME280;58450;52.150;4.466;2023-06-01T08:40:07;102455.25;;;22.16;82.26
66273;BME280;58450;52.150;4.466;2023-06-01T08:42:43;102452.78;;;21.57;80.46
66273;BME280;58450;52.150;4.466;2023-06-01T08:45:20;102452.16;;;22.12;80.63
66273;BME280;58450;52.150;4.466;2023-06-01T08:47:49;102456.78;;;22.12;79.64
66273;BME280;58450;52.150;4.466;2023-06-01T08:50:21;102457.19;;;21.65;79.69
66273;BME280;58450;52.150;4.466;2023-06-01T08:52:52;102453.28;;;21.79;79.99
66273;BME280;58450;52.150;4.466;2023-06-01T08:55:23;102455.53;;;21.25;78.04
66273;BME280;58450;52.150;4.466;2023-06-01T08:57:52;102465.06;;;20.63;80.66
66273;BME280;58450;52.150;4.466;2023-06-01T09:00:21;102462.84;;;20.92;81.42
66273;BME280;58450;52.150;4.466;2023-06-01T09:02:51;102452.03;;;20.45;81.78
66273;BME280;58450;52.150;4.466;2023-06-01T09:05:18;102449.97;;;20.41;82.18
66273;BME280;58450;52.150;4.466;2023-06-01T09:07:48;102449.47;;;20.71;82.81
66273;BME280;58450;52.150;4.466;2023-06-01T09:10:23;102440.28;;;21.04;82.45
66273;BME280;58450;52.150;4.466;2023-06-01T09:12:53;102438.66;;;21.60;80.49
66273;BME280;58450;52.150;4.466;2023-06-01T09:15:22;102427.69;;;21.92;78.51
66273;BME280;58450;52.150;4.466;2023-06-01T09:17:52;102441.25;;;22.06;75.79
66273;BME280;58450;52.150;4.466;2023-06-01T09:20:32;102437.41;;;21.88;75.74
66273;BME280;58450;52.150;4.466;2023-06-01T09:23:00;102436.50;;;22.38;75.56
66273;BME280;58450;52.150;4.466;2023-06-01T09:25:30;102434.38;;;22.59;74.68
66273;BME280;58450;52.150;4.466;2023-06-01T09:28:00;102434.06;;;22.98;74.40
66273;BME280;58450;52.150;4.466;2023-06-01T09:30:37;102426.38;;;22.76;70.10
66273;BME280;58450;52.150;4.466;2023-06-01T09:33:09;102424.28;;;22.90;71.38
66273;BME280;58450;52.150;4.466;2023-06-01T09:35:41;102424.53;;;21.63;70.37
66273;BME280;58450;52.150;4.466;2023-06-01T09:38:10;102422.31;;;22.23;72.76
66273;BME280;58450;52.150;4.466;2023-06-01T09:40:56;102420.03;;;22.38;73.55
66273;BME280;58450;52.150;4.466;2023-06-01T09:43:25;102417.22;;;22.82;72.97
66273;BME280;58450;52.150;4.466;2023-06-01T09:46:04;102424.28;;;22.71;69.70
66273;BME280;58450;52.150;4.466;2023-06-01T09:48:33;102429.13;;;23.07;70.87
66273;BME280;58450;52.150;4.466;2023-06-01T09:51:00;102419.25;;;23.60;70.42
66273;BME280;58450;52.150;4.466;2023-06-01T09:53:28;102418.72;;;23.39;69.53
66273;BME280;58450;52.150;4.466;2023-06-01T09:56:08;102422.59;;;23.74;67.10
66273;BME280;58450;52.150;4.466;2023-06-01T09:58:36;102418.56;;;23.88;67.34
66273;BME280;58450;52.150;4.466;2023-06-01T10:01:07;102419.91;;;23.31;65.63
66273;BME280;58450;52.150;4.466;2023-06-01T10:03:38;102417.66;;;22.23;68.99
66273;BME280;58450;52.150;4.466;2023-06-01T10:06:11;102417.25;;;20.73;73.40
66273;BME280;58450;52.150;4.466;2023-06-01T10:08:39;102404.81;;;20.84;77.68
66273;BME280;58450;52.150;4.466;2023-06-01T10:11:09;102415.69;;;21.61;76.15
66273;BME280;58450;52.150;4.466;2023-06-01T10:13:37;102411.78;;;21.18;75.59
66273;BME280;58450;52.150;4.466;2023-06-01T10:16:06;102421.91;;;20.65;77.80
66273;BME280;58450;52.150;4.466;2023-06-01T10:18:34;102420.97;;;20.26;78.67
66273;BME280;58450;52.150;4.466;2023-06-01T10:21:04;102431.38;;;20.70;80.21
66273;BME280;58450;52.150;4.466;2023-06-01T10:23:34;102418.69;;;20.10;80.62
66273;BME280;58450;52.150;4.466;2023-06-01T10:26:08;102423.94;;;20.18;81.76
66273;BME280;58450;52.150;4.466;2023-06-01T10:28:44;102422.03;;;19.64;86.38
66273;BME280;58450;52.150;4.466;2023-06-01T10:31:35;102416.78;;;20.23;82.54
66273;BME280;58450;52.150;4.466;2023-06-01T10:34:04;102420.66;;;20.61;81.16
66273;BME280;58450;52.150;4.466;2023-06-01T10:37:13;102414.00;;;20.44;79.77
66273;BME280;58450;52.150;4.466;2023-06-01T10:39:42;102414.00;;;20.44;80.76
66273;BME280;58450;52.150;4.466;2023-06-01T10:42:39;102411.47;;;20.94;80.46
66273;BME280;58450;52.150;4.466;2023-06-01T10:48:04;102402.72;;;21.18;79.11
66273;BME280;58450;52.150;4.466;2023-06-01T10:50:34;102403.13;;;20.83;78.95
66273;BME280;58450;52.150;4.466;2023-06-01T10:53:25;102409.34;;;21.35;79.48
66273;BME280;58450;52.150;4.466;2023-06-01T10:59:12;102413.34;;;21.01;77.33
66273;BME280;58450;52.150;4.466;2023-06-01T11:01:43;102404.09;;;20.43;80.26
66273;BME280;58450;52.150;4.466;2023-06-01T11:04:12;102403.84;;;20.58;81.69
66273;BME280;58450;52.150;4.466;2023-06-01T11:06:41;102398.59;;;20.56;81.27
66273;BME280;58450;52.150;4.466;2023-06-01T11:09:10;102407.72;;;19.29;83.30
66273;BME280;58450;52.150;4.466;2023-06-01T11:12:00;102406.91;;;20.16;83.78
66273;BME280;58450;52.150;4.466;2023-06-01T11:14:30;102400.78;;;20.93;80.62
66273;BME280;58450;52.150;4.466;2023-06-01T11:17:26;102409.09;;;21.11;82.53
66273;BME280;58450;52.150;4.466;2023-06-01T11:19:58;102402.88;;;21.55;80.17
66273;BME280;58450;52.150;4.466;2023-06-01T11:22:34;102407.91;;;21.26;77.61
66273;BME280;58450;52.150;4.466;2023-06-01T11:25:04;102409.19;;;20.91;79.72
66273;BME280;58450;52.150;4.466;2023-06-01T11:27:34;102403.63;;;21.05;79.80
66273;BME280;58450;52.150;4.466;2023-06-01T11:30:05;102406.38;;;20.59;80.46
66273;BME280;58450;52.150;4.466;2023-06-01T11:32:38;102407.53;;;20.18;82.32
66273;BME280;58450;52.150;4.466;2023-06-01T11:35:18;102402.19;;;20.43;81.54
66273;BME280;58450;52.150;4.466;2023-06-01T11:37:46;102401.47;;;20.09;82.59
66273;BME280;58450;52.150;4.466;2023-06-01T11:40:20;102402.97;;;19.91;83.97
66273;BME280;58450;52.150;4.466;2023-06-01T11:42:48;102404.19;;;19.89;86.90
66273;BME280;58450;52.150;4.466;2023-06-01T11:45:17;102406.06;;;20.08;86.16
66273;BME280;58450;52.150;4.466;2023-06-01T11:47:45;102398.50;;;19.63;86.65
66273;BME280;58450;52.150;4.466;2023-06-01T11:50:22;102396.84;;;19.83;87.63
66273;BME280;58450;52.150;4.466;2023-06-01T11:52:54;102398.53;;;19.90;88.86
66273;BME280;58450;52.150;4.466;2023-06-01T11:55:22;102392.44;;;20.67;88.22
66273;BME280;58450;52.150;4.466;2023-06-01T11:57:50;102393.28;;;21.14;85.56
66273;BME280;58450;52.150;4.466;2023-06-01T12:00:20;102399.47;;;21.60;81.10
66273;BME280;58450;52.150;4.466;2023-06-01T12:02:48;102398.13;;;21.11;81.64
66273;BME280;58450;52.150;4.466;2023-06-01T12:05:16;102398.88;;;21.25;83.17
66273;BME280;58450;52.150;4.466;2023-06-01T12:07:44;102392.16;;;21.53;79.84
66273;BME280;58450;52.150;4.466;2023-06-01T12:10:12;102400.91;;;21.37;81.89
66273;BME280;58450;52.150;4.466;2023-06-01T12:12:43;102403.06;;;20.96;81.93
66273;BME280;58450;52.150;4.466;2023-06-01T12:15:11;102398.09;;;19.87;86.21
66273;BME280;58450;52.150;4.466;2023-06-01T12:17:48;102401.84;;;20.26;89.27
66273;BME280;58450;52.150;4.466;2023-06-01T12:20:30;102404.59;;;22.00;84.57
66273;BME280;58450;52.150;4.466;2023-06-01T12:23:00;102408.22;;;23.06;78.96
66273;BME280;58450;52.150;4.466;2023-06-01T12:25:29;102411.50;;;23.81;74.70
66273;BME280;58450;52.150;4.466;2023-06-01T12:28:05;102405.59;;;23.41;71.01
66273;BME280;58450;52.150;4.466;2023-06-01T12:30:34;102404.09;;;22.84;70.71
66273;BME280;58450;52.150;4.466;2023-06-01T12:33:03;102403.88;;;24.07;69.81
66273;BME280;58450;52.150;4.466;2023-06-01T12:35:32;102405.41;;;24.02;70.53
66273;BME280;58450;52.150;4.466;2023-06-01T12:38:03;102408.03;;;23.73;71.77
66273;BME280;58450;52.150;4.466;2023-06-01T12:40:33;102410.13;;;21.43;77.36
66273;BME280;58450;52.150;4.466;2023-06-01T12:43:01;102412.16;;;21.79;78.89
66273;BME280;58450;52.150;4.466;2023-06-01T12:45:34;102400.59;;;23.08;75.01
66273;BME280;58450;52.150;4.466;2023-06-01T12:48:05;102392.63;;;23.18;71.70
66273;BME280;58450;52.150;4.466;2023-06-01T12:50:33;102408.41;;;21.99;77.29
66273;BME280;58450;52.150;4.466;2023-06-01T12:53:09;102413.44;;;22.02;76.55
66273;BME280;58450;52.150;4.466;2023-06-01T12:55:37;102410.91;;;21.50;80.74
66273;BME280;58450;52.150;4.466;2023-06-01T12:58:04;102416.13;;;20.28;85.93
66273;BME280;58450;52.150;4.466;2023-06-01T13:00:32;102428.06;;;20.47;87.44
66273;BME280;58450;52.150;4.466;2023-06-01T13:02:59;102428.78;;;20.02;89.11